createdAt,value
2018-02-18T00:01:38.688Z,87.42
2018-02-18T00:04:06.383Z,87.34
2018-02-18T00:06:34.096Z,87.36
2018-02-18T00:09:01.798Z,87.56
2018-02-18T00:11:29.531Z,88.87
2018-02-18T00:13:57.257Z,89.18
2018-02-18T00:16:25.012Z,89.75
2018-02-18T00:18:52.667Z,89.65
2018-02-18T00:21:20.383Z,89.23
2018-02-18T00:23:48.075Z,89.35
2018-02-18T00:26:15.773Z,89.36
2018-02-18T00:28:43.517Z,89.81
2018-02-18T00:31:11.196Z,90.42
2018-02-18T00:33:38.927Z,90.49
2018-02-18T00:36:06.612Z,90.58
2018-02-18T00:38:34.340Z,90.39
2018-02-18T00:41:02.008Z,89.29
2018-02-18T00:43:29.757Z,89.02
2018-02-18T00:45:57.503Z,87.63
2018-02-18T00:48:25.216Z,87.95
2018-02-18T00:50:52.996Z,88.19
2018-02-18T00:53:20.705Z,86.83
2018-02-18T00:55:48.467Z,86.97
2018-02-18T00:58:16.269Z,86.90
2018-02-18T01:00:44.011Z,86.81
2018-02-18T01:03:11.692Z,86.81
2018-02-18T01:05:39.403Z,85.98
2018-02-18T01:08:07.085Z,85.23
2018-02-18T01:10:34.804Z,85.18
2018-02-18T01:13:02.564Z,85.99
2018-02-18T01:15:30.255Z,86.21
2018-02-18T01:17:57.938Z,86.39
2018-02-18T01:20:25.650Z,86.49
2018-02-18T01:22:53.357Z,86.95
2018-02-18T01:25:21.075Z,87.17
2018-02-18T01:27:48.785Z,87.19
2018-02-18T01:30:16.549Z,87.54
2018-02-18T01:32:44.267Z,88.12
2018-02-18T01:35:11.957Z,85.64
2018-02-18T01:37:39.678Z,86.21
2018-02-18T01:40:07.350Z,85.76
2018-02-18T01:42:35.077Z,85.95
2018-02-18T01:45:02.779Z,85.63
2018-02-18T01:47:30.561Z,85.26
2018-02-18T01:49:58.302Z,85.56
2018-02-18T01:52:26.176Z,86.03
2018-02-18T01:54:53.943Z,86.51
2018-02-18T01:57:21.598Z,85.15
2018-02-18T01:59:49.254Z,85.32
2018-02-18T02:02:16.986Z,85.76
2018-02-18T02:04:44.771Z,84.79
2018-02-18T02:07:12.468Z,85.06
2018-02-18T02:09:40.115Z,84.87
2018-02-18T02:12:07.838Z,84.95
2018-02-18T02:14:35.503Z,85.48
2018-02-18T02:17:03.227Z,85.50
2018-02-18T02:19:31.004Z,84.76
2018-02-18T02:21:58.668Z,84.93
2018-02-18T02:24:26.413Z,84.56
2018-02-18T02:26:54.134Z,84.76
2018-02-18T02:29:21.837Z,85.72
2018-02-18T02:31:49.586Z,86.31
2018-02-18T02:34:17.729Z,85.77
2018-02-18T02:36:45.627Z,85.82
2018-02-18T02:39:13.291Z,86.52
2018-02-18T02:41:41.076Z,85.93
2018-02-18T02:44:08.823Z,86.20
2018-02-18T02:46:36.490Z,86.52
2018-02-18T02:49:04.191Z,86.70
2018-02-18T02:51:31.911Z,87.42
2018-02-18T02:53:59.615Z,87.31
2018-02-18T02:56:27.329Z,85.34
2018-02-18T02:58:55.025Z,84.89
2018-02-18T03:01:22.761Z,85.94
2018-02-18T03:03:50.443Z,86.09
2018-02-18T03:06:18.100Z,86.37
2018-02-18T03:08:45.812Z,87.24
2018-02-18T03:11:13.487Z,87.46
2018-02-18T03:13:41.209Z,87.43
2018-02-18T03:16:08.925Z,87.65
2018-02-18T03:18:36.630Z,87.02
2018-02-18T03:21:04.287Z,86.17
2018-02-18T03:23:32.025Z,85.78
2018-02-18T03:25:59.693Z,85.89
2018-02-18T03:28:27.430Z,85.88
2018-02-18T03:30:55.160Z,86.36
2018-02-18T03:33:22.882Z,86.90
2018-02-18T03:35:50.564Z,86.48
2018-02-18T03:38:18.350Z,86.47
2018-02-18T03:40:46.073Z,86.76
2018-02-18T03:43:13.787Z,86.69
2018-02-18T03:45:41.499Z,86.81
2018-02-18T03:48:09.183Z,86.96
2018-02-18T03:50:36.906Z,86.57
2018-02-18T03:53:04.562Z,87.21
2018-02-18T03:55:32.268Z,87.54
2018-02-18T03:57:59.975Z,86.55
2018-02-18T04:00:28.241Z,87.30
2018-02-18T04:02:55.953Z,87.46
2018-02-18T04:05:23.618Z,87.20
2018-02-18T04:07:51.351Z,87.64
2018-02-18T04:10:19.079Z,87.99
2018-02-18T04:12:46.808Z,87.66
2018-02-18T04:15:14.541Z,88.33
2018-02-18T04:17:42.202Z,88.97
2018-02-18T04:20:09.945Z,89.24
2018-02-18T04:22:37.595Z,89.10
2018-02-18T04:25:05.337Z,89.80
2018-02-18T04:27:33.069Z,89.65
2018-02-18T04:30:00.725Z,89.55
2018-02-18T04:32:28.442Z,89.21
2018-02-18T04:34:56.103Z,88.99
2018-02-18T04:37:23.848Z,88.93
2018-02-18T04:39:51.516Z,89.54
2018-02-18T04:42:19.192Z,89.64
2018-02-18T04:44:46.908Z,88.83
2018-02-18T04:47:14.801Z,88.26
2018-02-18T04:49:42.507Z,88.38
2018-02-18T04:52:10.197Z,88.82
2018-02-18T04:54:37.913Z,89.07
2018-02-18T04:57:05.639Z,90.07
2018-02-18T04:59:33.323Z,90.49
2018-02-18T05:02:01.006Z,90.66
2018-02-18T05:04:28.743Z,90.62
2018-02-18T05:06:56.474Z,91.25
2018-02-18T05:09:24.150Z,91.12
2018-02-18T05:11:51.883Z,91.24
2018-02-18T05:14:19.533Z,90.88
2018-02-18T05:16:47.282Z,90.28
2018-02-18T05:19:15.067Z,90.50
2018-02-18T05:21:42.729Z,90.14
2018-02-18T05:24:10.490Z,90.11
2018-02-18T05:26:38.204Z,89.16
2018-02-18T05:29:05.989Z,89.49
2018-02-18T05:31:33.642Z,89.44
2018-02-18T05:34:01.380Z,89.40
2018-02-18T05:36:29.108Z,88.70
2018-02-18T05:38:56.789Z,88.89
2018-02-18T05:41:24.538Z,87.63
2018-02-18T05:43:52.231Z,87.02
2018-02-18T05:46:19.946Z,86.84
2018-02-18T05:48:47.677Z,87.21
2018-02-18T05:51:15.396Z,87.76
2018-02-18T05:53:43.137Z,86.80
2018-02-18T05:56:10.784Z,86.71
2018-02-18T05:58:38.497Z,87.38
2018-02-18T06:01:06.189Z,87.09
2018-02-18T06:03:33.910Z,87.06
2018-02-18T06:06:01.603Z,85.74
2018-02-18T06:08:29.334Z,86.32
2018-02-18T06:10:57.031Z,85.95
2018-02-18T06:13:24.825Z,85.73
2018-02-18T06:15:52.500Z,86.65
2018-02-18T06:18:20.215Z,87.05
2018-02-18T06:20:47.995Z,87.63
2018-02-18T06:23:15.754Z,87.87
2018-02-18T06:25:43.491Z,87.97
2018-02-18T06:28:11.173Z,87.92
2018-02-18T06:30:38.903Z,88.11
2018-02-18T06:33:06.606Z,87.87
2018-02-18T06:35:34.341Z,87.59
2018-02-18T06:38:02.205Z,87.68
2018-02-18T06:40:29.901Z,88.32
2018-02-18T06:42:57.683Z,88.75
2018-02-18T06:45:25.406Z,88.56
2018-02-18T06:47:53.096Z,88.35
2018-02-18T06:50:20.840Z,87.98
2018-02-18T06:52:48.540Z,88.29
2018-02-18T06:55:16.290Z,86.57
2018-02-18T06:57:44.046Z,83.69
2018-02-18T07:00:11.808Z,82.86
2018-02-18T07:02:39.506Z,83.26
2018-02-18T07:05:07.201Z,84.12
2018-02-18T07:07:34.916Z,83.54
2018-02-18T07:10:02.654Z,82.46
2018-02-18T07:12:32.017Z,83.26
2018-02-18T07:14:59.764Z,81.70
2018-02-18T07:17:27.459Z,82.39
2018-02-18T07:19:55.138Z,82.95
2018-02-18T07:22:22.941Z,81.56
2018-02-18T07:24:50.670Z,81.64
2018-02-18T07:27:18.467Z,82.06
2018-02-18T07:29:46.182Z,81.30
2018-02-18T07:32:13.917Z,81.20
2018-02-18T07:34:41.650Z,81.67
2018-02-18T07:37:09.451Z,81.43
2018-02-18T07:39:37.292Z,81.63
2018-02-18T07:42:05.158Z,81.13
2018-02-18T07:44:32.930Z,81.11
2018-02-18T07:47:00.643Z,81.53
2018-02-18T07:49:28.448Z,81.27
2018-02-18T07:51:57.035Z,79.83
2018-02-18T07:54:24.777Z,79.18
2018-02-18T07:56:52.447Z,79.23
2018-02-18T07:59:20.188Z,78.33
2018-02-18T08:01:47.981Z,80.75
2018-02-18T08:04:15.879Z,81.85
2018-02-18T08:06:43.604Z,82.16
2018-02-18T08:09:11.381Z,81.90
2018-02-18T08:11:39.178Z,82.51
2018-02-18T08:14:06.931Z,80.22
2018-02-18T08:16:34.646Z,79.31
2018-02-18T08:19:02.418Z,78.11
2018-02-18T08:21:30.343Z,77.20
2018-02-18T08:23:58.171Z,77.20
2018-02-18T08:26:25.982Z,76.80
2018-02-18T08:28:53.763Z,76.40
2018-02-18T08:31:21.604Z,75.21
2018-02-18T08:33:50.200Z,75.66
2018-02-18T08:36:18.019Z,75.98
2018-02-18T08:38:45.802Z,76.49
2018-02-18T08:41:13.527Z,76.96
2018-02-18T08:43:41.378Z,75.25
2018-02-18T08:46:09.195Z,76.11
2018-02-18T08:48:36.924Z,74.85
2018-02-18T08:51:04.690Z,74.77
2018-02-18T08:53:32.407Z,72.88
2018-02-18T08:56:00.221Z,72.11
2018-02-18T08:58:27.933Z,70.66
2018-02-18T09:00:55.870Z,71.94
2018-02-18T09:03:23.599Z,72.48
2018-02-18T09:05:51.419Z,72.66
2018-02-18T09:08:19.115Z,71.09
2018-02-18T09:10:46.865Z,71.67
2018-02-18T09:13:14.640Z,71.40
2018-02-18T09:15:42.382Z,72.93
2018-02-18T09:18:10.185Z,73.01
2018-02-18T09:20:38.987Z,70.78
2018-02-18T09:23:06.782Z,71.13
2018-02-18T09:25:34.633Z,69.59
2018-02-18T09:28:02.409Z,69.55
2018-02-18T09:30:30.424Z,69.08
2018-02-18T09:32:58.212Z,68.88
2018-02-18T09:35:26.100Z,68.50
2018-02-18T09:37:53.839Z,68.00
2018-02-18T09:40:21.694Z,65.00
2018-02-18T09:42:49.445Z,68.87
2018-02-18T09:45:17.260Z,68.61
2018-02-18T09:47:45.091Z,68.29
2018-02-18T09:50:14.081Z,67.95
2018-02-18T09:52:43.265Z,69.13
2018-02-18T09:55:13.027Z,68.50
2018-02-18T09:57:40.807Z,68.95
2018-02-18T10:00:08.588Z,66.20
2018-02-18T10:02:36.824Z,66.77
2018-02-18T10:05:04.957Z,66.09
2018-02-18T10:07:33.013Z,65.55
2018-02-18T10:10:00.941Z,66.46
2018-02-18T10:12:28.851Z,65.43
2018-02-18T10:14:56.680Z,66.32
2018-02-18T10:17:24.440Z,65.66
2018-02-18T10:19:53.314Z,65.46
2018-02-18T10:22:21.801Z,65.85
2018-02-18T10:24:49.596Z,65.93
2018-02-18T10:27:17.598Z,64.94
2018-02-18T10:29:45.393Z,63.86
2018-02-18T10:32:13.666Z,63.71
2018-02-18T10:34:42.735Z,63.22
2018-02-18T10:37:12.380Z,63.37
2018-02-18T10:39:40.749Z,64.19
2018-02-18T10:42:08.531Z,63.60
2018-02-18T10:44:36.300Z,64.04
2018-02-18T10:47:04.068Z,65.11
2018-02-18T10:49:31.887Z,65.75
2018-02-18T10:51:59.583Z,65.01
2018-02-18T10:54:27.860Z,64.30
2018-02-18T10:56:55.643Z,62.75
2018-02-18T10:59:24.308Z,63.33
2018-02-18T11:01:53.590Z,65.98
2018-02-18T11:04:21.298Z,64.67
2018-02-18T11:06:49.053Z,65.97
2018-02-18T11:09:16.803Z,63.12
2018-02-18T11:11:44.627Z,64.85
2018-02-18T11:14:12.360Z,64.76
2018-02-18T11:16:40.279Z,64.20
2018-02-18T11:19:08.175Z,64.07
2018-02-18T11:21:35.882Z,62.40
2018-02-18T11:24:03.670Z,62.79
2018-02-18T11:26:31.397Z,62.64
2018-02-18T11:28:59.169Z,61.71
2018-02-18T11:31:26.889Z,60.82
2018-02-18T11:33:54.579Z,62.66
2018-02-18T11:36:22.360Z,62.31
2018-02-18T11:38:50.139Z,62.76
2018-02-18T11:41:17.883Z,62.22
2018-02-18T11:43:45.646Z,63.41
2018-02-18T11:46:13.868Z,62.38
2018-02-18T11:48:41.696Z,62.72
2018-02-18T11:51:09.467Z,64.16
2018-02-18T11:53:37.298Z,62.55
2018-02-18T11:56:05.117Z,61.90
2018-02-18T11:58:33.596Z,63.39
2018-02-18T12:01:01.636Z,61.23
2018-02-18T12:03:30.526Z,60.51
2018-02-18T12:05:59.128Z,60.94
2018-02-18T12:08:27.256Z,60.83
2018-02-18T12:10:54.983Z,62.34
2018-02-18T12:13:22.832Z,59.70
2018-02-18T12:15:50.631Z,59.57
2018-02-18T12:18:18.394Z,59.56
2018-02-18T12:20:46.291Z,59.94
2018-02-18T12:23:14.298Z,57.47
2018-02-18T12:25:46.121Z,57.18
2018-02-18T12:28:13.962Z,57.08
2018-02-18T12:30:42.145Z,57.33
2018-02-18T12:33:10.753Z,57.67
2018-02-18T12:35:38.609Z,58.15
2018-02-18T12:38:06.997Z,59.14
2018-02-18T12:40:34.806Z,57.83
2018-02-18T12:43:02.680Z,58.83
2018-02-18T12:45:30.468Z,58.46
2018-02-18T12:47:58.265Z,59.44
2018-02-18T12:50:26.060Z,60.15
2018-02-18T12:52:53.752Z,59.97
2018-02-18T12:55:21.574Z,61.06
2018-02-18T12:57:49.622Z,62.25
2018-02-18T13:00:17.919Z,61.62
2018-02-18T13:02:45.688Z,61.56
2018-02-18T13:05:13.591Z,61.07
2018-02-18T13:07:41.727Z,61.05
2018-02-18T13:10:09.667Z,61.26
2018-02-18T13:12:37.461Z,61.05
2018-02-18T13:15:05.497Z,62.41
2018-02-18T13:17:34.197Z,62.13
2018-02-18T13:20:02.227Z,61.33
2018-02-18T13:22:30.225Z,61.95
2018-02-18T13:24:58.406Z,60.54
2018-02-18T13:27:26.472Z,60.65
2018-02-18T13:29:54.251Z,60.73
2018-02-18T13:32:22.095Z,59.87
2018-02-18T13:34:50.069Z,59.16
2018-02-18T13:37:17.869Z,62.93
2018-02-18T13:39:46.557Z,61.63
2018-02-18T13:42:14.345Z,60.44
2018-02-18T13:44:42.100Z,61.29
2018-02-18T13:47:09.887Z,59.78
2018-02-18T13:49:37.739Z,60.85
2018-02-18T13:52:05.497Z,60.22
2018-02-18T13:54:34.125Z,61.58
2018-02-18T13:57:02.050Z,61.44
2018-02-18T13:59:30.692Z,61.39
2018-02-18T14:01:59.353Z,59.51
2018-02-18T14:04:27.881Z,59.24
2018-02-18T14:06:55.592Z,60.12
2018-02-18T14:09:23.354Z,57.61
2018-02-18T14:11:51.141Z,59.53
2018-02-18T14:14:18.885Z,57.73
2018-02-18T14:16:46.722Z,59.63
2018-02-18T14:19:14.567Z,60.29
2018-02-18T14:21:42.319Z,60.77
2018-02-18T14:24:10.132Z,62.06
2018-02-18T14:26:37.877Z,60.81
2018-02-18T14:29:05.698Z,61.84
2018-02-18T14:31:33.458Z,61.26
2018-02-18T14:34:02.023Z,62.66
2018-02-18T14:36:29.786Z,61.75
2018-02-18T14:38:57.555Z,60.58
2018-02-18T14:41:37.082Z,61.16
2018-02-18T14:44:16.614Z,60.59
2018-02-18T14:46:56.585Z,60.77
2018-02-18T14:49:36.103Z,58.68
2018-02-18T14:52:16.172Z,61.07
2018-02-18T14:55:05.570Z,56.91
2018-02-18T14:57:36.084Z,57.47
2018-02-18T15:00:03.894Z,60.71
2018-02-18T15:02:31.666Z,61.25
2018-02-18T15:04:59.455Z,59.06
2018-02-18T15:07:27.218Z,56.97
2018-02-18T15:09:56.913Z,57.88
2018-02-18T15:12:26.201Z,59.37
2018-02-18T15:14:55.128Z,57.64
2018-02-18T15:17:22.998Z,57.08
2018-02-18T15:19:53.668Z,56.71
2018-02-18T15:22:22.379Z,58.59
2018-02-18T15:24:50.238Z,59.93
2018-02-18T15:27:18.284Z,60.89
2018-02-18T15:29:46.165Z,60.14
2018-02-18T15:32:14.381Z,61.04
2018-02-18T15:34:42.720Z,60.72
2018-02-18T15:37:11.541Z,61.51
2018-02-18T15:39:40.201Z,62.42
2018-02-18T15:42:08.970Z,61.92
2018-02-18T15:44:37.997Z,60.64
2018-02-18T15:47:06.268Z,59.71
2018-02-18T15:49:34.468Z,60.25
2018-02-18T15:52:03.646Z,60.18
2018-02-18T15:54:31.588Z,60.66
2018-02-18T15:56:59.552Z,61.76
2018-02-18T15:59:27.607Z,60.26
2018-02-18T16:01:55.814Z,61.33
2018-02-18T16:04:23.718Z,59.81
2018-02-18T16:06:52.849Z,62.12
2018-02-18T16:09:20.876Z,61.37
2018-02-18T16:11:49.268Z,60.90
2018-02-18T16:14:17.773Z,61.46
2018-02-18T16:16:46.256Z,62.46
2018-02-18T16:19:15.138Z,62.23
2018-02-18T16:21:43.063Z,60.94
2018-02-18T16:24:13.251Z,63.21
2018-02-18T16:26:43.010Z,64.37
2018-02-18T16:29:11.090Z,63.64
2018-02-18T16:31:40.518Z,64.53
2018-02-18T16:34:10.821Z,63.53
2018-02-18T16:36:39.472Z,63.62
2018-02-18T16:39:08.353Z,65.72
2018-02-18T16:41:37.334Z,66.04
2018-02-18T16:44:05.606Z,66.49
2018-02-18T16:46:33.791Z,67.91
2018-02-18T16:49:02.053Z,69.95
2018-02-18T16:51:30.726Z,69.96
2018-02-18T16:53:59.687Z,70.08
2018-02-18T16:56:27.544Z,70.55
2018-02-18T16:58:55.553Z,70.89
2018-02-18T17:01:24.003Z,70.92
2018-02-18T17:03:52.122Z,71.77
2018-02-18T17:06:22.674Z,73.19
2018-02-18T17:08:51.333Z,72.88
2018-02-18T17:11:19.095Z,73.68
2018-02-18T17:13:47.777Z,74.86
2018-02-18T17:16:15.498Z,75.27
2018-02-18T17:18:43.525Z,75.02
2018-02-18T17:21:11.328Z,75.60
2018-02-18T17:23:40.505Z,75.51
2018-02-18T17:26:08.550Z,76.04
2018-02-18T17:28:59.702Z,75.51
2018-02-18T17:31:30.237Z,76.35
2018-02-18T17:33:58.617Z,75.60
2018-02-18T17:36:27.865Z,74.89
2018-02-18T17:38:56.480Z,74.86
2018-02-18T17:41:26.198Z,74.39
2018-02-18T17:43:54.424Z,73.89
2018-02-18T17:46:22.363Z,74.09
2018-02-18T17:48:51.453Z,73.57
2018-02-18T17:51:19.812Z,73.53
2018-02-18T17:53:48.489Z,75.71
2018-02-18T17:56:16.479Z,76.93
2018-02-18T17:58:44.634Z,76.16
2018-02-18T18:01:12.571Z,74.82
2018-02-18T18:03:40.731Z,75.32
2018-02-18T18:06:10.150Z,74.09
2018-02-18T18:08:38.284Z,74.12
2018-02-18T18:11:07.103Z,73.40
2018-02-18T18:13:35.161Z,74.82
2018-02-18T18:16:02.907Z,76.06
2018-02-18T18:18:30.679Z,76.33
2018-02-18T18:20:58.382Z,76.88
2018-02-18T18:23:26.155Z,77.68
2018-02-18T18:25:54.096Z,78.32
2018-02-18T18:28:22.388Z,78.30
2018-02-18T18:30:50.492Z,78.43
2018-02-18T18:33:18.454Z,78.49
2018-02-18T18:35:46.236Z,79.35
2018-02-18T18:38:14.020Z,80.18
2018-02-18T18:40:42.018Z,80.14
2018-02-18T18:43:09.830Z,79.59
2018-02-18T18:45:37.643Z,79.92
2018-02-18T18:48:05.865Z,79.86
2018-02-18T18:50:33.709Z,78.98
2018-02-18T18:53:01.848Z,78.84
2018-02-18T18:55:29.770Z,80.08
2018-02-18T18:57:57.718Z,80.27
2018-02-18T19:02:59.726Z,80.05
2018-02-18T19:05:27.557Z,79.67
2018-02-18T19:07:55.450Z,79.45
2018-02-18T19:10:23.500Z,79.64
2018-02-18T19:12:51.314Z,79.81
2018-02-18T19:15:19.168Z,79.16
2018-02-18T19:17:48.867Z,78.66
2018-02-18T19:20:16.672Z,78.58
2018-02-18T19:22:44.517Z,78.36
2018-02-18T19:25:12.483Z,79.76
2018-02-18T19:27:40.333Z,79.99
2018-02-18T19:30:08.336Z,79.37
2018-02-18T19:32:36.181Z,79.12
2018-02-18T19:35:04.854Z,79.41
2018-02-18T19:37:32.879Z,79.36
2018-02-18T19:40:02.767Z,78.60
2018-02-18T19:42:30.642Z,78.25
2018-02-18T19:44:58.468Z,77.83
2018-02-18T19:47:26.392Z,77.04
2018-02-18T19:49:55.786Z,78.29
2018-02-18T19:52:26.846Z,78.87
2018-02-18T19:55:00.223Z,79.17
2018-02-18T19:57:28.047Z,78.71
2018-02-18T19:59:57.087Z,78.64
2018-02-18T20:02:25.225Z,78.88
2018-02-18T20:04:53.248Z,78.98
2018-02-18T20:07:22.149Z,78.95
2018-02-18T20:09:50.158Z,78.72
2018-02-18T20:12:18.168Z,78.15
2018-02-18T20:14:45.970Z,78.34
2018-02-18T20:17:15.266Z,78.09
2018-02-18T20:19:43.347Z,77.97
2018-02-18T20:22:11.710Z,78.00
2018-02-18T20:24:40.097Z,77.94
2018-02-18T20:27:09.211Z,78.66
2018-02-18T20:29:37.139Z,79.21
2018-02-18T20:32:05.686Z,79.80
2018-02-18T20:34:33.920Z,80.21
2018-02-18T20:37:02.505Z,80.60
2018-02-18T20:39:30.343Z,80.80
2018-02-18T20:41:58.401Z,80.96
2018-02-18T20:44:27.942Z,80.54
2018-02-18T20:46:56.331Z,80.63
2018-02-18T20:49:24.378Z,80.46
2018-02-18T20:51:52.796Z,80.36
2018-02-18T20:54:20.729Z,79.66
2018-02-18T20:56:49.022Z,78.79
2018-02-18T20:59:16.887Z,78.73
2018-02-18T21:01:44.964Z,79.28
2018-02-18T21:04:13.081Z,79.60
2018-02-18T21:06:40.843Z,80.25
2018-02-18T21:09:08.906Z,80.20
2018-02-18T21:11:36.702Z,79.54
2018-02-18T21:14:04.627Z,79.33
2018-02-18T21:16:32.824Z,79.05
2018-02-18T21:19:01.306Z,79.33
2018-02-18T21:21:29.096Z,78.69
2018-02-18T21:23:56.910Z,80.93
2018-02-18T21:26:24.786Z,80.42
2018-02-18T21:28:52.567Z,80.22
2018-02-18T21:31:20.289Z,79.97
2018-02-18T21:33:48.288Z,80.22
2018-02-18T21:36:15.983Z,80.04
2018-02-18T21:38:44.960Z,79.73
2018-02-18T21:41:12.912Z,79.75
2018-02-18T21:43:41.360Z,79.73
2018-02-18T21:46:09.197Z,80.47
2018-02-18T21:48:36.875Z,80.87
2018-02-18T21:51:04.672Z,81.10
2018-02-18T21:53:32.353Z,80.95
2018-02-18T21:56:00.187Z,80.94
2018-02-18T21:58:28.745Z,80.86
2018-02-18T22:00:56.507Z,80.95
2018-02-18T22:03:24.407Z,81.25
2018-02-18T22:05:52.163Z,81.63
2018-02-18T22:08:22.177Z,82.06
2018-02-18T22:10:49.909Z,81.63
2018-02-18T22:13:17.975Z,81.50
2018-02-18T22:15:45.896Z,80.94
2018-02-18T22:18:14.347Z,80.69
2018-02-18T22:20:42.544Z,80.58
2018-02-18T22:23:12.112Z,80.85
2018-02-18T22:25:40.139Z,80.38
2018-02-18T22:28:09.140Z,80.88
2018-02-18T22:30:37.156Z,82.09
2018-02-18T22:33:07.863Z,82.73
2018-02-18T22:35:37.216Z,82.34
2018-02-18T22:38:05.160Z,81.45
2018-02-18T22:40:33.822Z,80.64
2018-02-18T22:43:02.960Z,80.75
2018-02-18T22:45:32.648Z,80.74
2018-02-18T22:48:01.613Z,81.80
2018-02-18T22:50:29.911Z,82.42
2018-02-18T22:52:58.646Z,81.95
2018-02-18T22:55:29.667Z,81.98
2018-02-18T22:57:57.444Z,81.37
2018-02-18T23:00:25.241Z,81.10
2018-02-18T23:02:54.304Z,81.13
2018-02-18T23:05:27.630Z,81.18
2018-02-18T23:07:55.984Z,81.32
2018-02-18T23:10:25.388Z,80.98
2018-02-18T23:12:57.755Z,81.24
2018-02-18T23:15:27.285Z,82.18
2018-02-18T23:17:55.830Z,82.41
2018-02-18T23:20:27.403Z,82.25
2018-02-18T23:22:56.853Z,82.37
2018-02-18T23:25:25.866Z,82.28
2018-02-18T23:28:01.139Z,82.54
2018-02-18T23:30:30.762Z,83.69
2018-02-18T23:33:11.644Z,83.42
2018-02-18T23:35:49.357Z,83.32
2018-02-18T23:38:22.354Z,83.38
2018-02-18T23:40:51.321Z,83.02
2018-02-18T23:43:23.310Z,82.55
2018-02-18T23:45:51.076Z,83.03
2018-02-18T23:48:24.183Z,83.10
2018-02-18T23:51:11.012Z,83.10
2018-02-18T23:58:26.685Z,83.88
